Time;durP1;ratioP1;P1;durP2;ratioP2;P2;SDS_P1;SDS_P2;PMS_P1;PMS_P2;Temp;Humidity;BMP_temperature;BMP_pressure;BME280_temperature;BME280_humidity;BME280_pressure;Samples;Min_cycle;Max_cycle;Signal;HPM_P1;HPM_P2
2023/06/27 00:02:03;;;;;;;3.33;1.60;;;;;;;17.86;99.17;99371.88;5119591;27;20198;-77
2023/06/27 00:04:32;;;;;;;4.77;1.60;;;;;;;17.88;99.77;99372.59;5133775;27;20218;-77
2023/06/27 00:07:00;;;;;;;4.73;1.80;;;;;;;17.84;100.00;99377.38;5125710;27;20194;-77
2023/06/27 00:09:28;;;;;;;2.83;1.63;;;;;;;17.86;100.00;99377.25;5127041;27;20280;-76
2023/06/27 00:11:57;;;;;;;4.27;1.77;;;;;;;17.89;100.00;99375.13;5130831;27;20198;-77
2023/06/27 00:14:25;;;;;;;4.73;1.70;;;;;;;17.95;100.00;99379.06;5121430;27;20198;-77
2023/06/27 00:16:53;;;;;;;3.13;1.60;;;;;;;17.76;100.00;99377.25;5077611;28;20194;-77
2023/06/27 00:19:24;;;;;;;2.07;1.40;;;;;;;17.76;100.00;99381.72;5127055;27;20194;-77
2023/06/27 00:21:53;;;;;;;4.37;1.80;;;;;;;17.76;100.00;99381.72;5123802;27;20192;-76
2023/06/27 00:24:22;;;;;;;2.57;1.80;;;;;;;17.69;100.00;99382.28;5122530;28;20218;-77
2023/06/27 00:26:50;;;;;;;2.80;1.80;;;;;;;17.60;100.00;99388.44;5122500;27;20209;-78
2023/06/27 00:29:18;;;;;;;3.77;1.70;;;;;;;17.61;100.00;99389.28;5124647;27;20208;-77
2023/06/27 00:31:47;;;;;;;7.93;1.87;;;;;;;17.69;100.00;99395.69;5132298;27;20199;-77
2023/06/27 00:34:15;;;;;;;3.53;1.57;;;;;;;17.60;100.00;99391.13;5128803;27;20565;-77
2023/06/27 00:36:44;;;;;;;4.20;1.60;;;;;;;17.57;100.00;99387.88;5120980;28;20197;-77
2023/06/27 00:39:13;;;;;;;2.63;1.60;;;;;;;17.50;100.00;99392.91;5133455;27;20206;-77
2023/06/27 00:41:41;;;;;;;3.50;1.57;;;;;;;17.35;100.00;99400.47;5126169;27;20226;-77
2023/06/27 00:44:10;;;;;;;4.37;1.80;;;;;;;17.29;100.00;99395.66;5129548;27;20220;-78
2023/06/27 00:46:39;;;;;;;3.17;1.90;;;;;;;17.40;100.00;99400.06;5126321;27;20206;-77
2023/06/27 00:49:10;;;;;;;4.47;2.07;;;;;;;17.30;100.00;99400.03;5133428;27;20239;-77
2023/06/27 00:51:40;;;;;;;4.57;1.73;;;;;;;17.23;100.00;99398.88;5123938;28;20202;-77
2023/06/27 00:54:11;;;;;;;3.40;1.80;;;;;;;17.23;100.00;99398.88;5125136;27;20198;-77
2023/06/27 00:56:39;;;;;;;5.73;1.70;;;;;;;17.31;100.00;99393.69;5125810;27;20191;-77
2023/06/27 00:59:08;;;;;;;4.80;1.90;;;;;;;17.27;100.00;99396.75;5124858;27;20202;-77
2023/06/27 01:01:38;;;;;;;5.57;1.90;;;;;;;17.30;100.00;99404.56;5122025;27;20191;-77
2023/06/27 01:04:06;;;;;;;4.47;2.20;;;;;;;17.26;100.00;99397.75;5133150;27;20218;-77
2023/06/27 01:06:41;;;;;;;4.63;2.37;;;;;;;17.07;100.00;99398.50;5123364;27;20201;-77
2023/06/27 01:09:22;;;;;;;5.23;1.93;;;;;;;17.07;100.00;99399.34;5128532;27;20204;-77
2023/06/27 01:11:57;;;;;;;3.97;2.30;;;;;;;17.03;100.00;99395.25;5122758;27;20190;-77
2023/06/27 01:14:28;;;;;;;7.47;2.63;;;;;;;17.08;100.00;99397.53;5133210;27;20233;-77
2023/06/27 01:16:58;;;;;;;6.60;2.53;;;;;;;17.04;100.00;99396.97;5127357;27;20199;-77
2023/06/27 01:19:29;;;;;;;5.90;2.67;;;;;;;17.02;100.00;99393.56;5125070;27;20199;-78
2023/06/27 01:22:06;;;;;;;5.97;2.17;;;;;;;16.95;100.00;99399.59;5133130;27;20206;-77
2023/06/27 01:24:37;;;;;;;4.33;1.70;;;;;;;16.87;100.00;99402.91;5132469;27;20210;-77
2023/06/27 01:27:06;;;;;;;5.17;2.10;;;;;;;16.41;100.00;99401.47;5121836;27;20202;-77
2023/06/27 01:29:34;;;;;;;3.67;1.93;;;;;;;16.56;100.00;99394.81;5136794;27;20198;-77
2023/06/27 01:32:09;;;;;;;3.77;1.80;;;;;;;16.51;100.00;99399.72;5130690;27;20200;-77
2023/06/27 01:34:47;;;;;;;4.10;2.07;;;;;;;16.63;100.00;99405.00;5132270;27;20217;-77
2023/06/27 01:37:21;;;;;;;5.73;2.30;;;;;;;16.58;100.00;99390.16;5133955;27;20672;-77
2023/06/27 01:39:57;;;;;;;6.33;2.30;;;;;;;16.64;100.00;99396.00;5130999;27;20200;-77
2023/06/27 01:42:32;;;;;;;3.50;1.80;;;;;;;16.50;100.00;99397.16;5131555;27;20222;-76
2023/06/27 01:45:03;;;;;;;4.53;2.10;;;;;;;16.57;100.00;99393.81;5124256;27;20280;-77
2023/06/27 01:47:36;;;;;;;5.60;2.00;;;;;;;16.64;100.00;99386.13;5127063;27;20218;-77
2023/06/27 01:50:05;;;;;;;3.73;2.17;;;;;;;16.54;100.00;99386.06;5136436;27;20194;-77
2023/06/27 01:52:33;;;;;;;5.73;1.80;;;;;;;16.67;100.00;99385.03;5087694;28;20195;-77
2023/06/27 01:55:03;;;;;;;2.50;1.73;;;;;;;16.55;100.00;99387.75;5086784;28;20389;-76
2023/06/27 01:57:32;;;;;;;2.60;1.70;;;;;;;16.62;100.00;99385.44;5082966;28;20195;-77
2023/06/27 02:00:00;;;;;;;4.73;1.60;;;;;;;16.54;100.00;99391.44;5079377;28;20203;-77
2023/06/27 02:02:29;;;;;;;3.80;1.70;;;;;;;16.51;100.00;99393.53;5093030;28;20200;-76
2023/06/27 02:04:57;;;;;;;3.83;1.90;;;;;;;16.60;100.00;99393.59;5084744;28;20714;-77
2023/06/27 02:07:25;;;;;;;3.17;1.80;;;;;;;16.58;100.00;99400.03;5087456;28;20206;-76
2023/06/27 02:09:54;;;;;;;2.87;1.67;;;;;;;16.55;100.00;99392.28;5092972;27;20594;-76
2023/06/27 02:12:24;;;;;;;3.80;1.63;;;;;;;16.43;100.00;99391.50;5026810;28;20233;-77
2023/06/27 02:14:52;;;;;;;5.60;2.20;;;;;;;16.32;100.00;99394.22;5022075;28;20309;-77
2023/06/27 02:17:21;;;;;;;3.00;1.87;;;;;;;16.50;100.00;99381.09;5027848;28;20645;-76
2023/06/27 02:19:49;;;;;;;5.67;2.10;;;;;;;16.42;100.00;99384.44;5027285;28;20209;-76
2023/06/27 02:22:17;;;;;;;4.77;1.87;;;;;;;16.39;100.00;99384.69;5027247;28;20217;-77
2023/06/27 02:24:46;;;;;;;3.20;1.80;;;;;;;16.30;100.00;99397.00;5025941;28;20221;-76
2023/06/27 02:27:15;;;;;;;5.33;2.43;;;;;;;16.32;100.00;99391.56;5025888;28;20245;-77
2023/06/27 02:29:45;;;;;;;5.53;2.40;;;;;;;16.27;100.00;99377.72;5039672;27;20257;-77
2023/06/27 02:32:13;;;;;;;4.50;1.90;;;;;;;16.15;100.00;99384.94;5128331;27;20221;-77
2023/06/27 02:34:43;;;;;;;5.63;1.97;;;;;;;16.02;100.00;99379.78;5126158;27;20195;-77
2023/06/27 02:37:11;;;;;;;6.47;2.10;;;;;;;16.26;100.00;99386.72;5129742;27;20194;-76
2023/06/27 02:39:40;;;;;;;4.77;1.70;;;;;;;16.31;100.00;99384.50;5123073;27;20198;-76
2023/06/27 02:42:09;;;;;;;4.17;1.77;;;;;;;16.25;100.00;99390.34;5129493;27;20237;-76
2023/06/27 02:44:37;;;;;;;4.13;2.00;;;;;;;16.21;100.00;99384.44;5129349;27;20210;-76
2023/06/27 02:47:07;;;;;;;3.53;1.87;;;;;;;16.21;100.00;99404.94;5132061;27;20202;-77
2023/06/27 02:49:36;;;;;;;5.93;2.03;;;;;;;16.04;100.00;99393.00;5130289;27;20195;-77
2023/06/27 02:52:04;;;;;;;2.87;1.70;;;;;;;15.92;100.00;99389.53;5126026;27;20200;-76
2023/06/27 02:54:33;;;;;;;2.53;1.90;;;;;;;15.99;100.00;99392.50;5126950;27;20194;-76
2023/06/27 02:57:02;;;;;;;5.97;2.30;;;;;;;16.05;100.00;99388.50;5087531;28;20276;-76
2023/06/27 02:59:30;;;;;;;4.07;1.73;;;;;;;16.04;100.00;99387.66;5082442;28;20200;-76
2023/06/27 03:01:58;;;;;;;2.93;1.90;;;;;;;15.99;100.00;99387.19;5082597;28;20220;-76
2023/06/27 03:04:29;;;;;;;2.90;1.80;;;;;;;15.96;100.00;99382.94;5085708;28;20701;-77
2023/06/27 03:06:57;;;;;;;4.77;2.10;;;;;;;16.01;100.00;99395.91;5066276;28;20263;-76
2023/06/27 03:09:26;;;;;;;5.17;2.20;;;;;;;15.92;100.00;99389.53;5070540;28;20188;-77
2023/06/27 03:11:54;;;;;;;4.50;1.70;;;;;;;15.91;100.00;99397.63;5064228;28;20196;-77
2023/06/27 03:14:22;;;;;;;3.60;1.97;;;;;;;16.03;100.00;99402.00;5072475;28;20200;-77
2023/06/27 03:16:50;;;;;;;2.27;1.90;;;;;;;15.99;100.00;99398.72;5053288;28;20282;-76
2023/06/27 03:19:18;;;;;;;4.23;1.87;;;;;;;15.92;100.00;99407.34;5088699;28;20227;-76
2023/06/27 03:22:07;;;;;;;3.43;1.80;;;;;;;15.88;100.00;99404.09;5091498;28;20191;-76
2023/06/27 03:24:36;;;;;;;4.20;2.37;;;;;;;15.99;100.00;99414.75;5096215;27;20301;-76
2023/06/27 03:27:05;;;;;;;6.13;2.37;;;;;;;15.83;100.00;99416.16;5128632;27;20198;-77
2023/06/27 03:29:33;;;;;;;4.93;2.30;;;;;;;15.65;100.00;99410.47;5128865;27;20665;-76
2023/06/27 03:32:04;;;;;;;5.77;2.00;;;;;;;15.96;100.00;99409.66;5129302;27;20198;-77
2023/06/27 03:34:33;;;;;;;3.27;2.10;;;;;;;15.86;100.00;99419.41;5127167;27;20198;-77
2023/06/27 03:37:02;;;;;;;3.40;2.27;;;;;;;15.78;100.00;99421.84;5128532;27;20194;-76
2023/06/27 03:39:32;;;;;;;3.10;2.30;;;;;;;15.91;100.00;99419.84;5123990;27;20613;-76
2023/06/27 03:42:00;;;;;;;3.20;2.40;;;;;;;15.87;100.00;99423.78;5126516;27;20232;-76
2023/06/27 03:44:29;;;;;;;5.50;2.50;;;;;;;15.88;100.00;99416.59;5131031;27;20649;-76
2023/06/27 03:46:57;;;;;;;4.77;2.17;;;;;;;15.86;100.00;99411.38;5122310;27;20198;-76
2023/06/27 03:49:25;;;;;;;3.53;2.10;;;;;;;15.91;100.00;99411.84;5129466;27;20198;-76
2023/06/27 03:51:56;;;;;;;4.33;2.07;;;;;;;15.86;100.00;99424.75;5129263;27;20206;-76
2023/06/27 03:54:24;;;;;;;5.80;2.17;;;;;;;15.87;100.00;99414.91;5124359;27;20217;-77
2023/06/27 03:56:54;;;;;;;6.33;2.23;;;;;;;15.97;100.00;99410.50;5133666;27;20295;-77
2023/06/27 03:59:23;;;;;;;6.53;2.07;;;;;;;16.12;100.00;99411.94;5126960;27;20273;-76
2023/06/27 04:01:51;;;;;;;4.40;2.10;;;;;;;16.20;100.00;99425.47;5128794;27;20736;-76
2023/06/27 04:04:20;;;;;;;5.27;2.20;;;;;;;16.32;100.00;99426.31;5125628;27;20198;-77
2023/06/27 04:06:48;;;;;;;5.10;2.30;;;;;;;16.40;100.00;99428.31;5129240;27;20218;-77
2023/06/27 04:09:16;;;;;;;6.03;2.00;;;;;;;16.31;100.00;99430.81;5121737;27;20679;-76
2023/06/27 04:11:44;;;;;;;3.43;2.13;;;;;;;16.12;100.00;99438.66;5133732;27;20201;-76
2023/06/27 04:14:17;;;;;;;4.43;2.20;;;;;;;16.07;100.00;99437.31;5128197;27;20235;-76
2023/06/27 04:16:45;;;;;;;4.23;2.40;;;;;;;16.23;100.00;99432.41;5129419;27;20201;-77
2023/06/27 04:19:13;;;;;;;7.47;2.40;;;;;;;16.33;100.00;99430.66;5126177;27;20250;-76
2023/06/27 04:21:42;;;;;;;4.93;2.30;;;;;;;16.28;100.00;99438.22;5133663;27;20190;-76
2023/06/27 04:24:10;;;;;;;9.63;2.60;;;;;;;16.29;100.00;99432.72;5120776;27;20718;-76
2023/06/27 04:26:38;;;;;;;4.37;2.20;;;;;;;16.21;100.00;99440.56;5129003;27;20218;-77
2023/06/27 04:29:07;;;;;;;3.83;2.07;;;;;;;16.23;100.00;99445.78;5130563;27;20687;-77
2023/06/27 04:31:37;;;;;;;4.93;2.00;;;;;;;16.19;100.00;99441.66;5123681;27;20708;-76
2023/06/27 04:34:08;;;;;;;3.63;2.10;;;;;;;16.15;100.00;99441.06;5126884;27;20198;-76
2023/06/27 04:36:41;;;;;;;5.13;2.27;;;;;;;15.76;100.00;99438.97;5124509;27;20198;-77
2023/06/27 04:39:10;;;;;;;4.63;2.30;;;;;;;15.97;100.00;99439.91;5127180;27;20649;-77
2023/06/27 04:41:38;;;;;;;3.37;2.40;;;;;;;16.05;100.00;99437.44;5128915;27;20229;-77
2023/06/27 04:44:06;;;;;;;5.60;2.30;;;;;;;15.93;100.00;99436.63;5126792;27;20558;-77
2023/06/27 04:46:37;;;;;;;2.87;2.13;;;;;;;15.80;100.00;99435.06;5122804;27;20222;-76
2023/06/27 04:49:05;;;;;;;4.33;2.20;;;;;;;15.63;100.00;99437.31;5122610;27;20198;-77
2023/06/27 04:51:34;;;;;;;8.47;2.40;;;;;;;15.27;100.00;99435.69;5124225;27;20313;-77
2023/06/27 04:54:02;;;;;;;6.77;2.60;;;;;;;15.22;100.00;99440.53;5128963;27;20645;-77
2023/06/27 04:56:31;;;;;;;3.10;2.50;;;;;;;15.57;100.00;99439.56;5121907;27;20198;-76
2023/06/27 04:59:01;;;;;;;4.57;2.57;;;;;;;15.93;100.00;99441.97;5124723;27;20221;-77
2023/06/27 05:01:29;;;;;;;4.20;2.40;;;;;;;16.03;100.00;99442.94;5135940;27;20205;-76
2023/06/27 05:04:04;;;;;;;6.43;2.23;;;;;;;16.13;100.00;99440.34;5137147;27;20224;-76
2023/06/27 05:06:33;;;;;;;6.80;2.40;;;;;;;16.11;100.00;99439.59;5131510;27;20220;-77
2023/06/27 05:09:03;;;;;;;4.00;2.50;;;;;;;16.32;100.00;99437.00;5134194;27;20194;-76
2023/06/27 05:11:32;;;;;;;6.93;2.40;;;;;;;16.36;100.00;99441.09;5133937;27;20195;-76
2023/06/27 05:14:00;;;;;;;7.50;3.20;;;;;;;16.43;100.00;99441.44;5134164;27;20205;-76
2023/06/27 05:16:28;;;;;;;7.03;2.63;;;;;;;16.43;100.00;99441.44;5125422;27;20194;-76
2023/06/27 05:18:57;;;;;;;5.87;2.33;;;;;;;16.43;100.00;99444.97;5129401;27;20202;-76
2023/06/27 05:21:29;;;;;;;6.43;2.17;;;;;;;16.66;100.00;99443.03;5127930;27;20198;-77
2023/06/27 05:23:59;;;;;;;6.40;2.33;;;;;;;16.81;100.00;99439.09;5129026;27;20225;-77
2023/06/27 05:26:27;;;;;;;4.13;2.00;;;;;;;16.95;100.00;99439.72;5127548;27;20218;-77
2023/06/27 05:28:57;;;;;;;7.03;2.40;;;;;;;17.21;100.00;99449.03;5123566;27;20204;-77
2023/06/27 05:31:26;;;;;;;4.27;2.27;;;;;;;17.04;100.00;99449.63;5132599;27;20187;-77
2023/06/27 05:33:55;;;;;;;6.13;2.73;;;;;;;16.99;100.00;99447.38;5131036;27;20199;-77
2023/06/27 05:36:24;;;;;;;6.13;2.03;;;;;;;17.10;100.00;99441.09;5132540;27;20222;-77
2023/06/27 05:38:56;;;;;;;3.10;1.97;;;;;;;17.28;100.00;99442.19;5136705;27;20275;-77
2023/06/27 05:41:24;;;;;;;3.27;2.10;;;;;;;17.26;100.00;99443.28;5123771;27;20716;-76
2023/06/27 05:43:53;;;;;;;4.13;2.27;;;;;;;17.24;100.00;99448.75;5133433;27;20275;-77
2023/06/27 05:46:21;;;;;;;4.87;2.00;;;;;;;17.29;100.00;99445.69;5127521;27;20229;-76
2023/06/27 05:48:49;;;;;;;3.27;1.90;;;;;;;17.24;100.00;99447.91;5126244;27;20202;-77
2023/06/27 05:51:18;;;;;;;3.17;1.77;;;;;;;17.37;100.00;99445.84;5128980;27;20235;-77
2023/06/27 05:53:47;;;;;;;5.97;2.10;;;;;;;17.23;100.00;99455.09;5129591;27;20635;-76
2023/06/27 05:56:17;;;;;;;5.93;2.13;;;;;;;17.42;100.00;99452.50;5129736;27;20190;-77
2023/06/27 05:58:46;;;;;;;5.77;1.87;;;;;;;17.32;100.00;99459.66;5125447;27;20278;-77
2023/06/27 06:01:14;;;;;;;4.33;2.00;;;;;;;16.97;100.00;99454.66;5124894;27;20201;-77
2023/06/27 06:03:43;;;;;;;5.73;2.50;;;;;;;17.08;100.00;99456.41;5136335;27;20293;-76
2023/06/27 06:06:12;;;;;;;4.40;2.20;;;;;;;17.12;100.00;99449.84;5135792;27;20214;-76
2023/06/27 06:08:41;;;;;;;6.43;1.97;;;;;;;17.24;100.00;99455.94;5133203;27;20243;-77
2023/06/27 06:11:10;;;;;;;5.30;2.30;;;;;;;17.11;100.00;99450.81;5127452;27;20222;-77
2023/06/27 06:13:40;;;;;;;8.00;2.03;;;;;;;16.81;100.00;99446.28;5125913;27;20194;-77
2023/06/27 06:16:09;;;;;;;6.67;2.60;;;;;;;16.84;100.00;99440.66;5131414;27;20298;-77
2023/06/27 06:18:37;;;;;;;7.07;2.20;;;;;;;17.18;100.00;99449.31;5129890;27;20194;-77
2023/06/27 06:21:07;;;;;;;4.53;2.13;;;;;;;17.35;100.00;99447.81;5135810;27;20190;-76
2023/06/27 06:23:35;;;;;;;7.27;2.40;;;;;;;17.03;100.00;99454.16;5132650;27;20258;-76
2023/06/27 06:26:03;;;;;;;5.63;2.33;;;;;;;17.09;100.00;99456.31;5130898;27;20190;-77
2023/06/27 06:28:32;;;;;;;6.13;1.97;;;;;;;17.34;100.00;99451.47;5127107;27;20204;-77
2023/06/27 06:31:02;;;;;;;3.70;2.10;;;;;;;17.34;100.00;99454.16;5126641;27;20208;-77
2023/06/27 06:33:30;;;;;;;4.50;1.57;;;;;;;17.46;100.00;99455.75;5129864;27;20200;-77
2023/06/27 06:35:59;;;;;;;3.77;1.50;;;;;;;17.76;100.00;99456.75;5120443;27;20269;-77
2023/06/27 06:38:27;;;;;;;3.90;1.80;;;;;;;17.95;100.00;99454.13;5130849;27;20206;-77
2023/06/27 06:40:55;;;;;;;4.97;2.00;;;;;;;17.63;100.00;99459.63;5132449;27;20218;-77
2023/06/27 06:43:25;;;;;;;6.87;2.00;;;;;;;17.64;100.00;99459.50;5130593;27;20190;-77
2023/06/27 06:45:54;;;;;;;4.03;1.80;;;;;;;17.81;100.00;99458.03;5124633;27;20672;-77
2023/06/27 06:48:24;;;;;;;5.00;2.13;;;;;;;17.91;100.00;99464.28;5132331;27;20218;-77
2023/06/27 06:50:53;;;;;;;3.87;1.83;;;;;;;18.03;100.00;99457.81;5123983;27;20198;-77
2023/06/27 06:53:22;;;;;;;3.87;2.00;;;;;;;18.10;100.00;99465.31;5128011;27;20202;-77
2023/06/27 06:55:50;;;;;;;2.40;1.90;;;;;;;18.06;100.00;99459.38;5135173;27;20277;-77
2023/06/27 06:58:18;;;;;;;5.17;2.10;;;;;;;18.22;100.00;99461.50;5131850;27;20246;-77
2023/06/27 07:00:47;;;;;;;4.97;2.00;;;;;;;18.17;100.00;99463.78;5129004;27;20243;-77
2023/06/27 07:03:15;;;;;;;4.17;1.90;;;;;;;18.24;100.00;99460.41;5119296;27;20198;-77
2023/06/27 07:05:45;;;;;;;5.10;1.90;;;;;;;17.89;100.00;99466.25;5126622;27;20200;-77
2023/06/27 07:08:14;;;;;;;5.77;2.23;;;;;;;18.00;100.00;99467.97;5122180;27;20218;-77
2023/06/27 07:10:42;;;;;;;3.37;2.00;;;;;;;18.14;100.00;99459.50;5129321;27;20195;-77
2023/06/27 07:13:10;;;;;;;3.30;1.93;;;;;;;18.28;100.00;99459.13;5126201;27;20202;-77
2023/06/27 07:15:38;;;;;;;5.70;1.90;;;;;;;18.08;100.00;99461.91;5130519;27;20208;-76
2023/06/27 07:18:07;;;;;;;2.90;2.10;;;;;;;18.36;100.00;99462.94;5120348;27;20198;-76
2023/06/27 07:20:35;;;;;;;3.33;2.17;;;;;;;18.17;100.00;99455.72;5123000;27;20235;-76
2023/06/27 07:23:05;;;;;;;7.67;2.57;;;;;;;18.31;100.00;99442.75;5127655;27;20194;-76
2023/06/27 07:25:35;;;;;;;5.70;2.00;;;;;;;18.83;100.00;99448.69;5131258;27;20684;-77
2023/06/27 07:28:04;;;;;;;5.87;2.40;;;;;;;18.46;100.00;99443.19;5128339;27;20297;-76
2023/06/27 07:30:32;;;;;;;4.97;2.60;;;;;;;18.34;100.00;99443.47;5130511;27;20194;-76
2023/06/27 07:33:00;;;;;;;6.17;2.53;;;;;;;18.69;100.00;99440.22;5131333;27;20194;-77
2023/06/27 07:35:29;;;;;;;6.53;2.10;;;;;;;18.68;100.00;99442.06;5120737;27;20216;-77
2023/06/27 07:37:57;;;;;;;5.43;2.23;;;;;;;18.80;100.00;99448.97;5131509;27;20202;-76
2023/06/27 07:40:27;;;;;;;4.67;2.10;;;;;;;18.98;100.00;99445.56;5119693;27;20674;-76
2023/06/27 07:42:56;;;;;;;6.33;2.03;;;;;;;19.20;100.00;99433.63;5134259;27;20187;-77
2023/06/27 07:45:25;;;;;;;7.73;2.10;;;;;;;19.50;100.00;99438.75;5087079;28;20710;-77
2023/06/27 07:47:53;;;;;;;5.57;2.23;;;;;;;19.69;100.00;99436.00;5080642;28;20216;-77
2023/06/27 07:50:22;;;;;;;9.30;2.10;;;;;;;19.53;100.00;99433.06;5085697;28;20199;-77
2023/06/27 07:52:50;;;;;;;6.97;2.47;;;;;;;19.47;100.00;99436.34;5090774;28;20202;-78
2023/06/27 07:55:18;;;;;;;9.70;2.57;;;;;;;19.44;100.00;99433.97;5076225;28;20739;-76
2023/06/27 07:57:48;;;;;;;7.70;2.33;;;;;;;19.71;100.00;99430.47;5084825;28;20247;-77
2023/06/27 08:00:18;;;;;;;5.83;2.30;;;;;;;19.80;100.00;99432.25;5078130;28;20199;-77
2023/06/27 08:02:47;;;;;;;6.67;2.27;;;;;;;19.67;100.00;99424.53;5086577;28;20199;-77
2023/06/27 08:05:18;;;;;;;11.87;2.40;;;;;;;19.95;100.00;99424.53;5085860;28;20188;-76
2023/06/27 08:07:46;;;;;;;6.80;2.40;;;;;;;20.16;97.37;99424.22;5082482;28;20215;-76
2023/06/27 08:10:15;;;;;;;7.23;2.00;;;;;;;20.33;96.90;99423.41;5108653;27;20186;-77
2023/06/27 08:12:43;;;;;;;3.57;2.00;;;;;;;20.57;93.00;99420.97;5133869;27;20229;-77
2023/06/27 08:15:13;;;;;;;6.10;2.10;;;;;;;20.39;91.21;99411.19;5122420;27;20203;-77
2023/06/27 08:17:42;;;;;;;5.20;2.20;;;;;;;20.61;90.37;99410.72;5131352;27;20200;-76
2023/06/27 08:20:10;;;;;;;6.77;2.10;;;;;;;20.41;90.72;99411.88;5118362;27;20222;-76
2023/06/27 08:22:39;;;;;;;6.50;2.37;;;;;;;20.73;90.90;99400.53;5124335;27;20225;-77
2023/06/27 08:25:08;;;;;;;5.40;2.40;;;;;;;20.94;88.99;99406.44;5125401;27;20198;-77
2023/06/27 08:27:36;;;;;;;5.97;2.20;;;;;;;21.12;84.74;99412.59;5133597;27;20639;-77
2023/06/27 08:30:05;;;;;;;4.57;2.03;;;;;;;20.20;82.80;99402.28;5125122;27;20209;-76
2023/06/27 08:32:35;;;;;;;6.97;2.00;;;;;;;20.56;82.79;99399.59;5133727;27;20199;-77
2023/06/27 08:35:05;;;;;;;7.33;1.93;;;;;;;20.71;77.10;99389.09;5126869;27;20293;-77
2023/06/27 08:37:34;;;;;;;4.37;1.63;;;;;;;20.93;77.74;99396.66;5137824;27;20185;-78
2023/06/27 08:40:02;;;;;;;6.90;2.10;;;;;;;20.55;70.22;99389.81;5086709;28;20199;-77
2023/06/27 08:42:32;;;;;;;3.80;1.97;;;;;;;20.92;71.67;99391.44;5084391;28;20239;-77
2023/06/27 08:45:01;;;;;;;3.87;1.50;;;;;;;21.00;71.43;99383.41;5044473;28;20187;-78
2023/06/27 08:47:31;;;;;;;4.13;1.80;;;;;;;20.93;75.79;99383.19;5090836;28;20226;-77
2023/06/27 08:50:04;;;;;;;4.90;1.53;;;;;;;21.32;72.02;99378.19;5086162;28;20223;-77
2023/06/27 08:52:43;;;;;;;5.23;1.70;;;;;;;21.29;73.98;99377.69;5085152;28;20192;-77
2023/06/27 08:55:19;;;;;;;4.43;2.00;;;;;;;21.28;75.89;99386.78;5089534;28;20199;-77
2023/06/27 08:57:48;;;;;;;4.20;2.13;;;;;;;21.48;72.52;99374.75;5091515;28;20201;-77
2023/06/27 09:00:22;;;;;;;5.13;1.97;;;;;;;21.61;74.31;99366.19;5120898;27;20190;-77
2023/06/27 09:02:51;;;;;;;5.30;2.30;;;;;;;21.80;75.84;99373.16;5134048;27;20194;-77
2023/06/27 09:05:22;;;;;;;3.73;2.07;;;;;;;22.08;70.02;99366.50;5131803;27;20198;-77
2023/06/27 09:07:50;;;;;;;4.03;1.70;;;;;;;22.09;64.58;99372.75;5096771;27;20661;-77
2023/06/27 09:10:19;;;;;;;4.00;1.98;;;;;;;22.27;63.15;99378.84;5126338;27;20200;-77
2023/06/27 09:12:51;;;;;;;4.10;2.05;;;;;;;22.03;62.17;99363.44;5129899;27;20198;-77
2023/06/27 09:15:19;;;;;;;4.50;1.90;;;;;;;22.00;62.66;99359.25;5127644;27;20206;-75
2023/06/27 09:17:48;;;;;;;3.53;1.80;;;;;;;22.18;64.65;99348.31;5127926;27;20202;-77
2023/06/27 09:20:18;;;;;;;3.55;2.00;;;;;;;21.52;68.36;99343.78;5130488;27;20229;-77
2023/06/27 09:22:49;;;;;;;6.05;1.73;;;;;;;21.86;62.07;99342.84;5126982;27;20273;-76
2023/06/27 09:25:19;;;;;;;2.25;1.45;;;;;;;21.54;58.64;99343.63;5133401;27;20182;-76
2023/06/27 09:27:50;;;;;;;3.13;1.58;;;;;;;21.34;61.69;99348.44;5129638;27;20190;-76
2023/06/27 09:30:23;;;;;;;6.57;1.90;;;;;;;20.91;66.28;99358.25;5125934;27;20214;-76
2023/06/27 09:32:56;;;;;;;7.20;2.10;;;;;;;20.95;67.21;99350.72;5127553;27;20201;-76
2023/06/27 09:35:26;;;;;;;4.57;1.90;;;;;;;21.03;67.79;99348.91;5133733;27;20198;-77
2023/06/27 09:38:16;;;;;;;4.83;1.97;;;;;;;21.14;68.30;99358.56;5136814;27;20199;-77
2023/06/27 09:40:49;;;;;;;2.73;1.53;;;;;;;21.26;68.10;99351.06;5134005;27;20231;-77
2023/06/27 09:43:21;;;;;;;4.20;1.80;;;;;;;20.84;69.83;99349.13;5136444;27;20190;-77
2023/06/27 09:45:58;;;;;;;3.93;2.00;;;;;;;20.95;72.46;99353.41;5130425;27;20198;-77
2023/06/27 09:48:27;;;;;;;3.67;1.70;;;;;;;21.36;70.68;99359.88;5126338;27;20222;-77
2023/06/27 09:50:59;;;;;;;7.47;1.98;;;;;;;21.61;68.32;99353.56;5136664;27;20186;-77
2023/06/27 09:53:33;;;;;;;2.87;1.90;;;;;;;21.87;66.24;99358.84;5133293;27;20202;-77
2023/06/27 09:56:02;;;;;;;4.55;1.83;;;;;;;22.17;65.58;99361.97;5131859;27;20197;-77
2023/06/27 09:58:33;;;;;;;3.17;2.17;;;;;;;21.75;66.49;99362.88;5129549;27;20310;-76
2023/06/27 10:01:05;;;;;;;3.78;2.20;;;;;;;22.00;66.05;99345.75;5131900;27;20625;-76
2023/06/27 10:03:36;;;;;;;3.92;1.90;;;;;;;22.25;65.47;99343.09;5127544;27;20225;-77
2023/06/27 10:06:05;;;;;;;8.50;2.20;;;;;;;21.81;67.88;99342.47;5127768;27;20665;-77
2023/06/27 10:08:41;;;;;;;4.80;2.00;;;;;;;21.74;69.38;99353.09;5134054;27;20301;-77
2023/06/27 10:11:10;;;;;;;6.10;1.90;;;;;;;21.84;70.44;99353.81;5130510;27;20346;-77
2023/06/27 10:13:40;;;;;;;6.00;1.95;;;;;;;21.86;68.93;99353.63;5128105;27;20684;-77
2023/06/27 10:16:10;;;;;;;4.50;1.97;;;;;;;22.14;66.68;99349.66;5127550;27;20667;-77
2023/06/27 10:18:38;;;;;;;5.35;2.05;;;;;;;22.24;69.03;99363.84;5048010;28;20200;-77
2023/06/27 10:21:07;;;;;;;2.60;1.80;;;;;;;22.50;66.52;99352.03;5043692;28;20271;-77
2023/06/27 10:23:37;;;;;;;4.30;1.98;;;;;;;22.43;65.13;99343.75;5046190;28;20232;-77
2023/06/27 10:26:10;;;;;;;7.53;1.80;;;;;;;22.37;66.14;99341.72;5040382;28;20221;-77
2023/06/27 10:28:38;;;;;;;3.72;1.67;;;;;;;22.54;53.85;99342.56;5047982;28;20677;-77
2023/06/27 10:31:07;;;;;;;5.55;1.80;;;;;;;22.80;55.40;99337.81;5050914;28;20225;-76
2023/06/27 10:33:42;;;;;;;5.97;1.80;;;;;;;22.80;61.57;99345.91;5045903;28;20185;-77
2023/06/27 10:36:11;;;;;;;4.10;1.88;;;;;;;22.71;57.54;99336.13;5066251;27;20209;-77
2023/06/27 10:38:41;;;;;;;3.20;1.95;;;;;;;22.71;55.21;99340.69;5130191;27;20206;-77
2023/06/27 10:41:12;;;;;;;3.58;1.67;;;;;;;22.73;56.71;99335.97;5127941;27;20289;-77
2023/06/27 10:43:49;;;;;;;3.92;1.83;;;;;;;22.77;55.18;99332.72;5129770;27;20206;-77
2023/06/27 10:46:20;;;;;;;4.65;1.80;;;;;;;23.01;54.33;99321.06;5125588;27;20190;-77
2023/06/27 10:48:50;;;;;;;4.90;1.70;;;;;;;23.03;53.64;99324.44;5131278;27;20259;-78
2023/06/27 10:51:20;;;;;;;3.53;1.77;;;;;;;22.74;55.86;99333.09;5132228;27;20302;-77
2023/06/27 10:54:14;;;;;;;4.10;1.52;;;;;;;22.91;53.69;99328.53;5130751;27;20207;-77
2023/06/27 10:56:45;;;;;;;3.00;1.60;;;;;;;22.95;52.03;99323.59;5131485;27;20194;-77
2023/06/27 10:59:16;;;;;;;3.75;1.60;;;;;;;23.14;51.88;99318.66;5129528;27;20243;-77
2023/06/27 11:01:50;;;;;;;3.70;1.60;;;;;;;23.75;51.71;99323.47;5128637;27;20241;-77
2023/06/27 11:04:25;;;;;;;4.20;1.80;;;;;;;23.60;52.77;99328.78;5124185;27;20225;-77
2023/06/27 11:06:59;;;;;;;2.78;1.70;;;;;;;23.59;47.72;99329.81;5129982;27;20303;-77
2023/06/27 11:09:29;;;;;;;4.05;1.52;;;;;;;22.90;49.43;99301.69;5127640;27;20218;-76
2023/06/27 11:12:11;;;;;;;2.90;1.42;;;;;;;24.04;48.73;99314.66;5095159;27;20653;-77
2023/06/27 11:14:41;;;;;;;4.72;1.60;;;;;;;23.95;50.13;99311.16;5133667;27;20190;-77
2023/06/27 11:17:09;;;;;;;4.82;1.60;;;;;;;24.36;48.41;99311.69;5130376;27;20183;-76
2023/06/27 11:19:39;;;;;;;4.68;1.50;;;;;;;23.99;44.54;99307.06;5131970;27;20222;-76
2023/06/27 11:22:08;;;;;;;4.93;1.60;;;;;;;23.49;45.51;99307.53;5126904;27;20190;-76
2023/06/27 11:24:36;;;;;;;3.22;1.40;;;;;;;23.43;46.99;99320.72;5129033;27;20195;-76
2023/06/27 11:27:08;;;;;;;2.70;1.70;;;;;;;22.87;47.75;99304.72;5129687;27;20197;-76
2023/06/27 11:29:36;;;;;;;4.63;1.63;;;;;;;22.97;49.11;99305.34;5123370;27;20236;-76
2023/06/27 11:32:05;;;;;;;4.78;1.70;;;;;;;22.79;49.91;99300.16;5125838;27;20202;-76
2023/06/27 11:34:34;;;;;;;2.25;1.50;;;;;;;22.67;52.39;99304.22;5126148;27;20202;-76
2023/06/27 11:37:02;;;;;;;5.15;1.60;;;;;;;22.70;52.92;99303.91;5123035;27;20664;-76
2023/06/27 11:39:31;;;;;;;3.03;1.67;;;;;;;22.68;52.83;99305.91;5134391;27;20396;-76